Aérodrome :
LOGIN :

S'inscrire | Disclaimer

   EN    FR    IT 

 










Légende :    VFR   VFR Marginal   IFR   IFR Intensif   IFR Très Intensif
Visi : 
Plafond : 
>= 8 km
>= 3000ft
5 à 8 km
1000 à 3000 ft
1500m à 5 km
500 à 1000 ft
800 à 1500m
200 à 500 ft
< 800m
< 200 ft
Symboles :   Orages  Brouillard  Fortes neiges  Fortes précipitations  Vent > 20 kt
SIGMETs :   Divers  Orages  Givrage  Turbulence  Onde Orograph.  Cendres Volcan.







- Altitude de l'aérodrome : 74 ft
- Code IATA : EIN


EHEH - Eindhoven

DERNIER METAR :
  • 210355Z AUTO 26003KT 230V300 9999 NCD 16/14 Q1010 BLU

METARs EXPIRÉS :
  • 210325Z AUTO 29003KT 250V320 9999 OVC110 17/14 Q1010 BLU
  • 210255Z AUTO 28003KT 240V310 9999 OVC100 18/14 Q1011 BLU
  • 210225Z AUTO 28003KT 240V320 9999 FEW099 OVC100 18/14 Q1011 BLU
  • 210155Z AUTO 27003KT 240V300 9999 OVC100 18/14 Q1011 BLU
  • 210125Z AUTO 28002KT 9999 OVC100 18/15 Q1011 BLU

TAF TAF EHEH
Valide du 21 à 00h jusqu'au 22 à 06h UTC


202245Z 2100/2206 30005KT CAVOK
Pas de NOTAMs connus pour ce terrain.



MET'MAP, la Météo Aéronautique d'un coup d'oeil ! - Copyright ORBIFLY Décembre 2007 - Disclaimer

ORBIFLY MET'MAP TEAM :

Programmation & Développement : Alexandra Zaïnal
Conception & Développement : Baudouin d'Aumeries
Co-Programmation & Développement : Marc-Olivier Méhu
Soutien technique & logistique : Manuel Goepfert

Contact : metmap@orbifly.com




SOURCES & CREDITS :

   NOAA